createdAt,value
2023-07-19T00:00:43.070Z,94697.16
2023-07-19T00:03:09.919Z,94690.72
2023-07-19T00:05:36.743Z,94680.00
2023-07-19T00:08:05.551Z,94641.81
2023-07-19T00:10:32.971Z,94625.78
2023-07-19T00:12:59.638Z,94660.09
2023-07-19T00:15:26.470Z,94621.22
2023-07-19T00:17:53.160Z,94571.44
2023-07-19T00:20:20.386Z,94602.13
2023-07-19T00:22:47.424Z,94802.28
2023-07-19T00:25:15.596Z,94805.09
2023-07-19T00:27:42.212Z,94710.53
2023-07-19T00:30:09.815Z,94680.66
2023-07-19T00:32:36.464Z,94679.19
2023-07-19T00:35:03.422Z,94688.22
2023-07-19T00:37:30.115Z,94697.47
2023-07-19T00:39:56.843Z,94674.03
2023-07-19T00:42:24.828Z,94660.63
2023-07-19T00:44:51.860Z,94637.38
2023-07-19T00:47:18.503Z,94636.09
2023-07-19T00:49:45.439Z,94639.75
2023-07-19T00:52:12.966Z,94656.81
2023-07-19T00:54:40.478Z,94646.28
2023-07-19T00:57:09.083Z,94667.28
2023-07-19T00:59:37.973Z,94687.59
2023-07-19T01:02:05.698Z,94693.81
2023-07-19T01:04:32.656Z,94670.88
2023-07-19T01:06:59.418Z,94645.56
2023-07-19T01:09:27.636Z,94659.56
2023-07-19T01:11:54.285Z,94672.47
2023-07-19T01:14:20.970Z,94686.03
2023-07-19T01:16:48.951Z,94676.94
2023-07-19T01:19:17.264Z,94668.00
2023-07-19T01:21:43.982Z,94661.81
2023-07-19T01:24:12.075Z,94648.81
2023-07-19T01:26:38.731Z,94647.38
2023-07-19T01:29:05.331Z,94614.66
2023-07-19T01:31:32.000Z,94600.03
2023-07-19T01:33:58.634Z,94563.97
2023-07-19T01:36:27.110Z,94719.03
2023-07-19T01:38:53.775Z,94901.38
2023-07-19T01:41:22.240Z,94776.25
2023-07-19T01:43:49.142Z,94734.13
2023-07-19T01:46:15.795Z,94710.22
2023-07-19T01:48:42.553Z,94686.25
2023-07-19T01:51:09.175Z,94689.59
2023-07-19T01:53:35.951Z,94702.03
2023-07-19T01:56:02.712Z,94693.88
2023-07-19T01:58:30.827Z,94697.22
2023-07-19T02:00:57.501Z,94674.84
2023-07-19T02:03:24.228Z,94667.56
2023-07-19T02:05:58.416Z,94657.91
2023-07-19T02:08:25.355Z,94660.16
2023-07-19T02:10:52.053Z,94650.22
2023-07-19T02:13:18.789Z,94657.25
2023-07-19T02:15:47.556Z,94671.59
2023-07-19T02:18:14.519Z,94670.97
2023-07-19T02:20:45.431Z,94679.38
2023-07-19T02:23:13.049Z,94682.59
2023-07-19T02:25:41.627Z,94664.72
2023-07-19T02:28:08.479Z,94673.75
2023-07-19T02:30:35.130Z,94670.44
2023-07-19T02:33:03.127Z,94661.84
2023-07-19T02:35:29.819Z,94667.63
2023-07-19T02:37:56.506Z,94667.31
2023-07-19T02:40:23.160Z,94673.50
2023-07-19T02:42:49.818Z,94682.22
2023-07-19T02:45:16.651Z,94668.59
2023-07-19T02:47:43.290Z,94649.69
2023-07-19T02:50:11.960Z,94651.59
2023-07-19T02:52:38.618Z,94653.81
2023-07-19T02:55:06.028Z,94654.81
2023-07-19T02:57:32.761Z,94659.88
2023-07-19T02:59:59.506Z,94653.97
2023-07-19T03:02:26.161Z,94655.94
2023-07-19T03:04:52.906Z,94665.03
2023-07-19T03:07:21.210Z,94656.59
2023-07-19T03:09:47.838Z,94650.50
2023-07-19T03:12:14.475Z,94655.94
2023-07-19T03:14:41.098Z,94653.16
2023-07-19T03:17:08.046Z,94645.94
2023-07-19T03:19:36.461Z,94642.69
2023-07-19T03:22:03.353Z,94648.16
2023-07-19T03:24:31.437Z,94656.53
2023-07-19T03:26:58.341Z,94635.97
2023-07-19T03:29:25.023Z,94629.31
2023-07-19T03:31:51.838Z,94641.91
2023-07-19T03:34:18.440Z,94636.78
2023-07-19T03:36:45.085Z,94631.97
2023-07-19T03:39:11.726Z,94636.19
2023-07-19T03:41:39.718Z,94643.34
2023-07-19T03:44:06.531Z,94643.03
2023-07-19T03:46:33.456Z,94634.31
2023-07-19T03:49:00.163Z,94649.09
2023-07-19T03:51:27.010Z,94634.88
2023-07-19T03:53:53.846Z,94620.72
2023-07-19T03:56:20.567Z,94618.00
2023-07-19T03:58:50.501Z,94620.28
2023-07-19T04:01:17.380Z,94624.13
2023-07-19T04:03:46.175Z,94633.50
2023-07-19T04:06:14.098Z,94632.22
2023-07-19T04:08:40.769Z,94614.91
2023-07-19T04:11:07.433Z,94613.97
2023-07-19T04:13:34.040Z,94638.41
2023-07-19T04:16:02.057Z,94626.34
2023-07-19T04:18:28.693Z,94625.56
2023-07-19T04:20:56.708Z,94649.31
2023-07-19T04:23:23.476Z,94685.19
2023-07-19T04:25:50.530Z,94675.88
2023-07-19T04:28:17.187Z,94668.19
2023-07-19T04:30:47.218Z,94675.56
2023-07-19T04:33:16.687Z,94662.59
2023-07-19T04:35:43.465Z,94675.25
2023-07-19T04:38:10.105Z,94671.16
2023-07-19T04:40:36.857Z,94663.78
2023-07-19T04:43:03.529Z,94680.50
2023-07-19T04:45:31.246Z,94686.38
2023-07-19T04:47:58.934Z,94686.56
2023-07-19T04:50:26.994Z,94675.47
2023-07-19T04:52:55.217Z,94651.50
2023-07-19T04:55:22.172Z,94661.31
2023-07-19T04:57:48.858Z,94680.69
2023-07-19T05:00:19.324Z,94681.06
2023-07-19T05:02:46.502Z,94680.50
2023-07-19T05:05:13.746Z,94654.28
2023-07-19T05:07:41.813Z,94654.69
2023-07-19T05:10:09.679Z,94659.50
2023-07-19T05:12:36.771Z,94647.16
2023-07-19T05:15:03.959Z,94637.31
2023-07-19T05:17:30.720Z,94641.97
2023-07-19T05:19:57.426Z,94634.34
2023-07-19T05:22:24.282Z,94631.00
2023-07-19T05:24:52.476Z,94631.00
2023-07-19T05:27:19.183Z,94643.38
2023-07-19T05:29:45.831Z,94651.63
2023-07-19T05:32:12.520Z,94658.19
2023-07-19T05:34:39.566Z,94644.03
2023-07-19T05:37:07.347Z,94653.38
2023-07-19T05:39:34.537Z,94648.09
2023-07-19T05:42:02.585Z,94661.19
2023-07-19T05:44:29.275Z,94690.09
2023-07-19T05:46:55.977Z,94711.97
2023-07-19T05:49:22.637Z,94714.94
2023-07-19T05:51:49.350Z,94705.56
2023-07-19T05:54:16.756Z,94707.63
2023-07-19T05:56:43.612Z,94681.94
2023-07-19T05:59:12.180Z,94697.00
2023-07-19T06:01:39.384Z,94689.03
2023-07-19T06:04:06.942Z,94699.06
2023-07-19T06:06:34.435Z,94708.13
2023-07-19T06:09:02.472Z,94711.47
2023-07-19T06:11:29.204Z,94700.13
2023-07-19T06:13:55.870Z,94729.47
2023-07-19T06:18:51.462Z,94694.91
2023-07-19T06:21:18.545Z,94727.25
2023-07-19T06:23:45.413Z,94750.13
2023-07-19T06:26:12.078Z,94733.94
2023-07-19T06:28:38.736Z,94739.06
2023-07-19T06:31:05.414Z,94759.03
2023-07-19T06:33:33.438Z,94745.16
2023-07-19T06:36:00.252Z,94746.47
2023-07-19T06:38:27.053Z,94748.03
2023-07-19T06:40:53.683Z,94760.28
2023-07-19T06:43:20.323Z,94757.38
2023-07-19T06:45:47.360Z,94744.88
2023-07-19T06:48:14.042Z,94754.50
2023-07-19T06:50:42.420Z,94752.81
2023-07-19T06:53:09.092Z,94751.78
2023-07-19T06:55:35.719Z,94756.22
2023-07-19T06:58:02.642Z,94770.31
2023-07-19T07:00:29.264Z,94761.09
2023-07-19T07:02:55.971Z,94746.16
2023-07-19T07:05:22.720Z,94756.25
2023-07-19T07:07:50.677Z,94765.84
2023-07-19T07:10:17.326Z,94786.59
2023-07-19T07:12:45.296Z,94789.78
2023-07-19T07:15:11.944Z,94779.25
2023-07-19T07:17:41.617Z,94769.34
2023-07-19T07:20:09.156Z,94768.22
2023-07-19T07:22:35.830Z,94775.06
2023-07-19T07:25:04.486Z,94770.19
2023-07-19T07:27:31.209Z,94767.88
2023-07-19T07:29:59.236Z,94768.50
2023-07-19T07:32:25.876Z,94777.28
2023-07-19T07:34:52.620Z,94778.09
2023-07-19T07:37:19.256Z,94774.56
2023-07-19T07:39:45.888Z,94770.03
2023-07-19T07:42:13.852Z,94761.50
2023-07-19T07:44:40.489Z,94766.69
2023-07-19T07:47:07.136Z,94765.84
2023-07-19T07:49:34.092Z,94766.09
2023-07-19T07:52:00.745Z,94756.31
2023-07-19T07:54:27.617Z,94774.81
2023-07-19T07:56:54.291Z,94798.34
2023-07-19T07:59:22.292Z,94789.97
2023-07-19T08:01:48.930Z,94784.25
2023-07-19T08:04:15.589Z,94772.69
2023-07-19T08:06:42.313Z,94757.13
2023-07-19T08:09:08.977Z,94742.53
2023-07-19T08:11:35.613Z,94741.44
2023-07-19T08:14:02.325Z,94763.00
2023-07-19T08:16:30.886Z,94756.81
2023-07-19T08:18:57.615Z,94743.66
2023-07-19T08:21:35.323Z,94742.78
2023-07-19T08:24:04.331Z,94744.50
2023-07-19T08:26:31.082Z,94745.84
2023-07-19T08:28:57.708Z,94733.84
2023-07-19T08:31:25.104Z,94734.69
2023-07-19T08:33:54.625Z,94746.66
2023-07-19T08:36:21.561Z,94743.81
2023-07-19T08:38:48.754Z,94764.09
2023-07-19T08:41:22.756Z,94761.72
2023-07-19T08:43:49.965Z,94753.81
2023-07-19T08:46:19.539Z,94739.03
2023-07-19T08:48:50.635Z,94735.56
2023-07-19T08:51:19.608Z,94732.38
2023-07-19T08:53:46.463Z,94734.75
2023-07-19T08:56:13.787Z,94752.84
2023-07-19T08:58:40.961Z,94757.44
2023-07-19T09:01:08.685Z,94762.81
2023-07-19T09:03:35.600Z,94744.53
2023-07-19T09:06:02.778Z,94726.56
2023-07-19T09:08:37.318Z,94725.88
2023-07-19T09:11:04.161Z,94733.97
2023-07-19T09:13:31.693Z,94747.13
2023-07-19T09:15:58.533Z,94776.00
2023-07-19T09:18:31.265Z,94802.94
2023-07-19T09:20:59.746Z,94785.97
2023-07-19T09:23:26.378Z,94768.50
2023-07-19T09:25:58.634Z,94789.78
2023-07-19T09:28:25.961Z,94783.88
2023-07-19T09:30:55.684Z,94769.00
2023-07-19T09:33:22.392Z,94777.28
2023-07-19T09:35:53.978Z,94776.19
2023-07-19T09:38:21.348Z,94771.59
2023-07-19T09:40:48.029Z,94760.72
2023-07-19T09:43:17.020Z,94739.16
2023-07-19T09:45:44.271Z,94745.94
2023-07-19T09:48:11.645Z,94735.44
2023-07-19T09:50:40.982Z,94738.75
2023-07-19T09:53:11.647Z,94728.06
2023-07-19T09:55:38.793Z,94716.56
2023-07-19T09:58:08.160Z,94726.31
2023-07-19T10:00:37.045Z,94710.31
2023-07-19T10:03:06.224Z,94711.66
2023-07-19T10:05:32.895Z,94716.56
2023-07-19T10:08:04.952Z,94704.16
2023-07-19T10:10:38.933Z,94699.16
2023-07-19T10:13:07.214Z,94690.16
2023-07-19T10:15:34.056Z,94695.09
2023-07-19T10:18:02.510Z,94691.53
2023-07-19T10:20:31.668Z,94685.59
2023-07-19T10:23:00.285Z,94683.53
2023-07-19T10:25:28.853Z,94680.53
2023-07-19T10:28:03.423Z,94690.19
2023-07-19T10:30:46.674Z,94682.38
2023-07-19T10:33:16.490Z,94670.25
2023-07-19T10:35:43.477Z,94671.03
2023-07-19T10:38:14.611Z,94672.91
2023-07-19T10:40:44.686Z,94669.38
2023-07-19T10:43:11.439Z,94647.84
2023-07-19T10:45:39.342Z,94659.97
2023-07-19T10:48:06.504Z,94657.44
2023-07-19T10:50:34.481Z,94652.81
2023-07-19T10:53:01.149Z,94657.56
2023-07-19T10:55:51.730Z,94657.94
2023-07-19T10:58:15.925Z,94658.84
2023-07-19T11:00:44.613Z,94657.41
2023-07-19T11:03:15.139Z,94651.34
2023-07-19T11:05:46.810Z,94658.47
2023-07-19T11:08:20.063Z,94657.72
2023-07-19T11:10:46.779Z,94651.22
2023-07-19T11:13:14.333Z,94650.06
2023-07-19T11:15:42.563Z,94667.72
2023-07-19T11:18:09.275Z,94660.50
2023-07-19T11:20:38.063Z,94655.28
2023-07-19T11:23:09.157Z,94644.88
2023-07-19T11:25:36.861Z,94646.50
2023-07-19T11:28:03.733Z,94651.91
2023-07-19T11:30:37.717Z,94650.88
2023-07-19T11:33:05.196Z,94650.88
2023-07-19T11:35:32.392Z,94646.91
2023-07-19T11:37:59.484Z,94634.41
2023-07-19T11:40:27.888Z,94635.63
2023-07-19T11:42:56.649Z,94636.94
2023-07-19T11:45:26.313Z,94632.50
2023-07-19T11:47:58.724Z,94620.53
2023-07-19T11:50:26.225Z,94624.56
2023-07-19T11:52:57.119Z,94614.97
2023-07-19T11:55:25.952Z,94606.13
2023-07-19T11:57:55.471Z,94615.63
2023-07-19T12:00:24.075Z,94604.53
2023-07-19T12:02:53.350Z,94596.69
2023-07-19T12:05:21.936Z,94598.97
2023-07-19T12:07:53.058Z,94594.63
2023-07-19T12:10:20.960Z,94592.03
2023-07-19T12:12:49.728Z,94581.88
2023-07-19T12:15:18.838Z,94579.69
2023-07-19T12:17:46.168Z,94577.94
2023-07-19T12:20:13.168Z,94568.13
2023-07-19T12:22:42.170Z,94569.22
2023-07-19T12:25:09.941Z,94580.38
2023-07-19T12:27:36.769Z,94575.72
2023-07-19T12:30:04.897Z,94577.34
2023-07-19T12:32:34.245Z,94569.72
2023-07-19T12:35:02.276Z,94565.41
2023-07-19T12:37:29.133Z,94562.78
2023-07-19T12:39:55.914Z,94565.78
2023-07-19T12:42:22.775Z,94545.78
2023-07-19T12:44:49.536Z,94551.03
2023-07-19T12:47:16.997Z,94539.41
2023-07-19T12:49:45.568Z,94545.03
2023-07-19T12:52:13.191Z,94531.78
2023-07-19T12:54:40.498Z,94522.19
2023-07-19T12:57:08.048Z,94525.31
2023-07-19T12:59:36.430Z,94519.25
2023-07-19T13:02:05.145Z,94520.84
2023-07-19T13:04:33.362Z,94520.19
2023-07-19T13:07:04.580Z,94523.09
2023-07-19T13:09:31.688Z,94529.22
2023-07-19T13:11:59.001Z,94521.53
2023-07-19T13:14:25.924Z,94507.59
2023-07-19T13:17:05.602Z,94504.19
2023-07-19T13:19:37.727Z,94509.19
2023-07-19T13:22:06.430Z,94503.31
2023-07-19T13:24:33.458Z,94498.41
2023-07-19T13:27:00.806Z,94489.63
2023-07-19T13:29:27.431Z,94504.34
2023-07-19T13:31:55.317Z,94508.50
2023-07-19T13:34:21.929Z,94517.31
2023-07-19T13:39:19.410Z,94510.75
2023-07-19T13:41:46.086Z,94509.03
2023-07-19T13:44:12.858Z,94527.66
2023-07-19T13:46:39.541Z,94532.88
2023-07-19T13:49:07.594Z,94518.88
2023-07-19T13:51:34.225Z,94519.41
2023-07-19T13:54:01.554Z,94516.81
2023-07-19T13:56:29.566Z,94503.38
2023-07-19T13:58:56.241Z,94496.81
2023-07-19T14:01:23.057Z,94490.28
2023-07-19T14:03:50.541Z,94488.22
2023-07-19T14:06:17.333Z,94487.22
2023-07-19T14:08:44.065Z,94477.94
2023-07-19T14:11:10.799Z,94484.00
2023-07-19T14:13:39.361Z,94482.97
2023-07-19T14:16:06.316Z,94477.22
2023-07-19T14:18:33.025Z,94471.88
2023-07-19T14:20:59.816Z,94468.94
2023-07-19T14:23:26.639Z,94471.25
2023-07-19T14:25:53.295Z,94466.09
2023-07-19T14:28:20.171Z,94466.63
2023-07-19T14:30:48.202Z,94457.47
2023-07-19T14:33:15.162Z,94459.22
2023-07-19T14:35:41.889Z,94464.03
2023-07-19T14:38:08.773Z,94473.28
2023-07-19T14:40:36.317Z,94474.94
2023-07-19T14:43:03.005Z,94462.97
2023-07-19T14:45:30.004Z,94467.53
2023-07-19T14:47:58.046Z,94461.84
2023-07-19T14:50:24.913Z,94456.66
2023-07-19T14:52:51.786Z,94462.22
2023-07-19T14:55:18.644Z,94474.56
2023-07-19T14:57:45.563Z,94470.41
2023-07-19T15:00:14.407Z,94472.69
2023-07-19T15:02:42.105Z,94470.44
2023-07-19T15:05:11.159Z,94467.88
2023-07-19T15:07:38.145Z,94462.34
2023-07-19T15:10:06.032Z,94455.88
2023-07-19T15:12:32.748Z,94461.94
2023-07-19T15:14:59.376Z,94454.72
2023-07-19T15:17:26.539Z,94460.44
2023-07-19T15:19:53.593Z,94458.63
2023-07-19T15:22:22.016Z,94450.53
2023-07-19T15:24:48.801Z,94455.72
2023-07-19T15:27:15.610Z,94453.84
2023-07-19T15:29:42.297Z,94451.69
2023-07-19T15:32:09.427Z,94448.06
2023-07-19T15:34:36.029Z,94433.94
2023-07-19T15:37:02.989Z,94433.03
2023-07-19T15:39:33.977Z,94435.88
2023-07-19T15:42:00.854Z,94438.50
2023-07-19T15:44:35.843Z,94438.13
2023-07-19T15:47:03.906Z,94441.22
2023-07-19T15:49:30.925Z,94440.44
2023-07-19T15:51:58.365Z,94423.13
2023-07-19T15:54:25.089Z,94437.75
2023-07-19T15:56:53.145Z,94427.16
2023-07-19T15:59:20.218Z,94426.50
2023-07-19T16:01:46.964Z,94427.63
2023-07-19T16:04:14.095Z,94432.03
2023-07-19T16:06:40.773Z,94431.25
2023-07-19T16:09:07.409Z,94428.47
2023-07-19T16:11:34.029Z,94424.16
2023-07-19T16:14:02.035Z,94423.72
2023-07-19T16:16:28.848Z,94427.41
2023-07-19T16:18:55.474Z,94431.66
2023-07-19T16:21:22.334Z,94431.59
2023-07-19T16:23:49.051Z,94423.13
2023-07-19T16:26:15.750Z,94428.63
2023-07-19T16:28:42.678Z,94427.41
2023-07-19T16:31:14.791Z,94432.41
2023-07-19T16:33:41.432Z,94430.78
2023-07-19T16:36:08.177Z,94440.09
2023-07-19T16:38:34.812Z,94434.03
2023-07-19T16:41:01.557Z,94435.44
2023-07-19T16:43:28.275Z,94444.59
2023-07-19T16:45:54.952Z,94447.19
2023-07-19T16:48:23.073Z,94448.41
2023-07-19T16:50:49.726Z,94447.88
2023-07-19T16:53:18.237Z,94450.28
2023-07-19T16:55:46.607Z,94441.75
2023-07-19T16:58:13.381Z,94445.97
2023-07-19T17:00:40.393Z,94450.28
2023-07-19T17:03:07.304Z,94439.75
2023-07-19T17:05:35.844Z,94441.75
2023-07-19T17:08:07.438Z,94434.94
2023-07-19T17:10:38.515Z,94433.41
2023-07-19T17:13:06.409Z,94424.50
2023-07-19T17:15:36.071Z,94436.88
2023-07-19T17:18:03.679Z,94435.53
2023-07-19T17:20:32.370Z,94437.59
2023-07-19T17:23:00.468Z,94430.53
2023-07-19T17:25:27.101Z,94435.75
2023-07-19T17:27:53.707Z,94439.38
2023-07-19T17:30:20.503Z,94451.72
2023-07-19T17:32:49.040Z,94449.44
2023-07-19T17:35:17.104Z,94444.22
2023-07-19T17:37:43.744Z,94445.59
2023-07-19T17:40:13.116Z,94449.44
2023-07-19T17:42:40.472Z,94444.38
2023-07-19T17:45:08.967Z,94441.16
2023-07-19T17:47:35.644Z,94443.66
2023-07-19T17:50:02.466Z,94443.88
2023-07-19T17:52:30.720Z,94447.03
2023-07-19T17:54:58.047Z,94445.91
2023-07-19T17:57:26.123Z,94444.44
2023-07-19T17:59:52.855Z,94436.06
2023-07-19T18:02:20.805Z,94437.69
2023-07-19T18:04:47.966Z,94443.72
2023-07-19T18:07:14.953Z,94444.06
2023-07-19T18:09:42.263Z,94448.50
2023-07-19T18:12:10.398Z,94440.25
2023-07-19T18:14:38.577Z,94436.28
2023-07-19T18:17:06.039Z,94436.84
2023-07-19T18:19:33.433Z,94438.97
2023-07-19T18:22:03.641Z,94433.09
2023-07-19T18:24:32.684Z,94433.22
2023-07-19T18:27:00.116Z,94433.53
2023-07-19T18:29:27.206Z,94434.94
2023-07-19T18:31:55.478Z,94431.72
2023-07-19T18:34:22.248Z,94427.16
2023-07-19T18:36:50.047Z,94425.41
2023-07-19T18:39:17.022Z,94425.41
2023-07-19T18:41:43.910Z,94420.00
2023-07-19T18:44:10.753Z,94425.09
2023-07-19T18:46:37.465Z,94431.16
2023-07-19T18:49:05.606Z,94435.00
2023-07-19T18:51:32.348Z,94434.53
2023-07-19T18:53:59.026Z,94439.97
2023-07-19T18:56:28.575Z,94438.97
2023-07-19T18:58:55.916Z,94443.81
2023-07-19T19:01:22.939Z,94448.44
2023-07-19T19:03:50.304Z,94449.44
2023-07-19T19:06:18.401Z,94460.94
2023-07-19T19:08:45.040Z,94463.97
2023-07-19T19:11:11.920Z,94472.44
2023-07-19T19:13:38.548Z,94475.13
2023-07-19T19:16:05.713Z,94476.34
2023-07-19T19:18:32.496Z,94484.59
2023-07-19T19:20:59.714Z,94496.56
2023-07-19T19:23:29.459Z,94498.47
2023-07-19T19:25:56.377Z,94486.06
2023-07-19T19:28:23.382Z,94499.59
2023-07-19T19:30:50.269Z,94508.06
2023-07-19T19:33:17.066Z,94511.09
2023-07-19T19:35:44.195Z,94507.50
2023-07-19T19:38:10.886Z,94511.31
2023-07-19T19:40:38.884Z,94508.34
2023-07-19T19:43:05.528Z,94503.53
2023-07-19T19:45:32.183Z,94503.31
2023-07-19T19:47:58.871Z,94505.78
2023-07-19T19:50:28.596Z,94506.19
2023-07-19T19:53:03.802Z,94501.81
2023-07-19T19:58:07.493Z,94511.22
2023-07-19T20:00:35.757Z,94513.63
2023-07-19T20:08:02.455Z,94533.66
2023-07-19T20:10:29.668Z,94534.56
2023-07-19T20:12:56.465Z,94533.00
2023-07-19T20:15:24.538Z,94536.25
2023-07-19T20:17:51.189Z,94531.91
2023-07-19T20:22:49.954Z,94533.81
2023-07-19T20:25:33.838Z,94537.72
2023-07-19T20:28:04.101Z,94543.66
2023-07-19T20:30:43.997Z,94544.94
2023-07-19T20:33:11.734Z,94544.81
2023-07-19T20:43:09.079Z,94560.75
2023-07-19T20:45:37.614Z,94565.34
2023-07-19T20:48:05.272Z,94565.88
2023-07-19T20:50:31.947Z,94568.28
2023-07-19T20:52:58.609Z,94569.63
2023-07-19T20:55:25.259Z,94572.72
2023-07-19T20:57:51.928Z,94572.91
2023-07-19T21:00:20.788Z,94578.19
2023-07-19T21:02:48.952Z,94570.28
2023-07-19T21:05:15.830Z,94569.34
2023-07-19T21:07:42.490Z,94572.09
2023-07-19T21:10:09.830Z,94567.03
2023-07-19T21:12:36.489Z,94560.47
2023-07-19T21:15:04.551Z,94554.56
2023-07-19T21:17:31.258Z,94569.38
2023-07-19T21:19:59.354Z,94575.41
2023-07-19T21:22:26.057Z,94576.19
2023-07-19T21:27:23.076Z,94583.19
2023-07-19T21:29:49.680Z,94592.91
2023-07-19T21:32:16.423Z,94593.69
2023-07-19T21:34:43.153Z,94591.31
2023-07-19T21:37:11.178Z,94593.25
2023-07-19T21:39:37.799Z,94585.13
2023-07-19T21:42:06.958Z,94598.50
2023-07-19T21:44:33.453Z,94603.47
2023-07-19T21:47:00.092Z,94601.09
2023-07-19T21:49:26.737Z,94606.81
2023-07-19T21:51:53.460Z,94604.88
2023-07-19T21:54:21.640Z,94600.56
2023-07-19T21:56:48.253Z,94598.19
2023-07-19T21:59:14.982Z,94598.50
2023-07-19T22:01:41.703Z,94607.28
2023-07-19T22:04:08.410Z,94609.00
2023-07-19T22:06:35.108Z,94614.41
2023-07-19T22:09:01.971Z,94610.78
2023-07-19T22:11:35.869Z,94602.31
2023-07-19T22:14:02.581Z,94596.63
2023-07-19T22:16:29.192Z,94594.72
2023-07-19T22:18:55.886Z,94583.88
2023-07-19T22:21:22.950Z,94568.59
2023-07-19T22:23:49.896Z,94618.91
2023-07-19T22:26:16.682Z,94637.38
2023-07-19T22:28:44.782Z,94630.84
2023-07-19T22:31:11.572Z,94631.00
2023-07-19T22:33:38.489Z,94627.97
2023-07-19T22:36:06.555Z,94624.84
2023-07-19T22:38:33.245Z,94634.25
2023-07-19T22:40:59.867Z,94622.59
2023-07-19T22:43:26.753Z,94622.59
2023-07-19T22:45:54.705Z,94623.91
2023-07-19T22:48:21.349Z,94623.94
2023-07-19T22:50:48.064Z,94629.63
2023-07-19T22:53:14.762Z,94618.50
2023-07-19T22:55:41.421Z,94604.16
2023-07-19T22:58:08.073Z,94623.88
2023-07-19T23:00:34.763Z,94610.66
2023-07-19T23:03:02.865Z,94623.56
2023-07-19T23:05:29.696Z,94649.81
2023-07-19T23:07:56.616Z,94638.34
2023-07-19T23:10:24.327Z,94627.94
2023-07-19T23:12:54.004Z,94633.94
2023-07-19T23:15:20.650Z,94633.44
2023-07-19T23:17:47.295Z,94631.03
2023-07-19T23:20:15.356Z,94645.84
2023-07-19T23:22:42.068Z,94637.72
2023-07-19T23:25:11.202Z,94656.81
2023-07-19T23:27:39.163Z,94667.78
2023-07-19T23:30:07.125Z,94671.78
2023-07-19T23:32:33.943Z,94664.59
2023-07-19T23:35:00.994Z,94673.69
2023-07-19T23:37:29.406Z,94682.09
2023-07-19T23:39:56.012Z,94684.53
2023-07-19T23:42:22.633Z,94695.16
2023-07-19T23:44:53.113Z,94689.13
2023-07-19T23:47:20.412Z,94685.63
2023-07-19T23:49:48.243Z,94693.56
2023-07-19T23:52:17.884Z,94698.19
2023-07-19T23:54:45.853Z,94686.91
2023-07-19T23:57:12.516Z,94680.97
2023-07-19T23:59:39.344Z,94698.19
